Etusivu
METAR-TAF:

METAR-TAF

Lentoasemat :

Recife, Pernambuco, Brasilia

Leveyspiiri: 08-08S, Pituuspiiri: 034-55W, korkeus merenpinnasta: 19 m

Tämänhetkinen sää

Tämä raportti tehtiin 22 minuuttia sitten, kello 15.00 UTC
Tuuli 15 kn etelästä/kaakosta
Lämpötila 28°C
Kosteus 66%
Ilmanpaine 1018 hPa
Näkyvyys 10 km tai enemmän
Hajonneita pilviä 2500 ft:n korkeudessa

METAR: SBRF 201500Z 15015KT 9999 BKN025 28/21 Q1018

Aika: 12:22 (15:22 UTC)

Sääennuste

Tämä raportti tehtiin 5 tuntia ja 22 minuuttia sitten, kello 10.00 UTC
Ennuste voimassa 20. päivästä klo 12 UTC - 21. päivään klo 12 UTC
Tuuli 9 kn kaakosta
Näkyvyys: 9000 m
Hajonneita pilviä 2000 ft:n korkeudessa
Tulossa
21. päivästä klo 05 UTC - 21. päivään klo 06 UTC
Tuuli 5 kn etelästä/lounaasta

TAF: SBRF 201000Z 2012/2112 14009KT 9000 BKN020 TX28/2015Z TN23/2108Z BECMG 2105/2106 21005KT RMK PCN

Säähavainnot ja -ennusteet yli 4000 lentoasemalta (METAR- ja TAF-raportit).

Käytössä olevat sääasemat on merkitty karttaan keltaisilla ja punaisilla pisteillä.

Aseta hiiri pisteen päälle nähdäksesi sääaseman nimen.

Klikkaa sitten nähdäksesi säähavainnot ja -ennusteet.

Kartan vaihtaminen: klikkaa mustalla rastilla varustettuja vihreitä pisteitä, niin voit zoomata sisään; viivalla varustettua vihreää pistettä, niin voit zoomata ulos tai vihreitä nuolia, niin pääset viereisille kartoille.


METAR-TAF: